Tracy, Missouri
Current Conditions -  °F | °C
As of 7:53 AM on Monday 26 Jan 2015 (Local Time) from KMCI Reporting Station
Few Clouds Few Clouds  
Wind Chill: -6°   Ceiling: Unl
Heat Index: -2°   Visibility: 10mi
Dew Point: -3°   Wind: 8mph
Humidity: 92%   Direction: 220°SW
Pressure: 29.99"   Gusts: NA
Location:  39.3588°N, 94.8136°W
Report Text: KMCI 261353Z 22007KT 10SM FEW150 FEW250 M02/M03 A2999 RMK AO2 SLP164 T10171028
Loading
Personal Weather Stations






























Interactive Weather Map New forecast layout! Learn more

10-Day Weather Forecast

Advertisements
Track Severe Weather on mobile